createdAt,value
2019-03-23T00:01:20.768Z,85.81
2019-03-23T00:03:47.025Z,85.97
2019-03-23T00:06:13.327Z,86.16
2019-03-23T00:08:39.638Z,86.26
2019-03-23T00:11:05.947Z,86.39
2019-03-23T00:13:32.258Z,86.46
2019-03-23T00:15:58.573Z,86.56
2019-03-23T00:18:24.880Z,86.74
2019-03-23T00:20:51.188Z,86.76
2019-03-23T00:23:17.493Z,86.92
2019-03-23T00:25:43.801Z,87.04
2019-03-23T00:28:10.106Z,87.18
2019-03-23T00:30:36.423Z,87.33
2019-03-23T00:33:02.730Z,87.43
2019-03-23T00:35:29.057Z,87.52
2019-03-23T00:37:55.362Z,87.62
2019-03-23T00:40:21.666Z,87.66
2019-03-23T00:42:47.972Z,87.69
2019-03-23T00:45:14.278Z,87.90
2019-03-23T00:47:40.590Z,87.92
2019-03-23T00:50:06.897Z,87.95
2019-03-23T00:52:33.204Z,87.99
2019-03-23T00:54:59.502Z,88.06
2019-03-23T00:57:25.832Z,88.12
2019-03-23T00:59:52.134Z,88.19
2019-03-23T01:02:18.471Z,88.19
2019-03-23T01:04:44.772Z,88.21
2019-03-23T01:07:11.073Z,88.39
2019-03-23T01:09:37.387Z,88.44
2019-03-23T01:12:03.690Z,88.40
2019-03-23T01:14:30.009Z,88.42
2019-03-23T01:16:56.319Z,88.40
2019-03-23T01:19:22.630Z,88.54
2019-03-23T01:21:48.928Z,88.50
2019-03-23T01:24:15.257Z,88.58
2019-03-23T01:26:41.560Z,88.65
2019-03-23T01:29:07.865Z,88.62
2019-03-23T01:31:34.170Z,88.76
2019-03-23T01:34:00.471Z,88.76
2019-03-23T01:36:26.779Z,88.68
2019-03-23T01:38:53.101Z,88.87
2019-03-23T01:41:19.420Z,88.92
2019-03-23T01:43:45.711Z,88.97
2019-03-23T01:46:12.043Z,89.09
2019-03-23T01:48:38.343Z,89.20
2019-03-23T01:51:04.648Z,89.21
2019-03-23T01:53:30.960Z,89.25
2019-03-23T01:55:57.271Z,89.38
2019-03-23T01:58:23.576Z,89.65
2019-03-23T02:00:49.889Z,89.90
2019-03-23T02:03:16.201Z,90.13
2019-03-23T02:05:42.510Z,90.27
2019-03-23T02:08:08.808Z,90.29
2019-03-23T02:10:35.145Z,90.38
2019-03-23T02:13:01.449Z,90.51
2019-03-23T02:15:27.761Z,90.61
2019-03-23T02:17:54.064Z,90.76
2019-03-23T02:20:20.393Z,90.96
2019-03-23T02:22:46.702Z,91.12
2019-03-23T02:25:13.008Z,91.22
2019-03-23T02:27:39.325Z,91.26
2019-03-23T02:30:05.634Z,91.40
2019-03-23T02:32:31.944Z,91.46
2019-03-23T02:34:58.247Z,91.58
2019-03-23T02:37:27.958Z,91.65
2019-03-23T02:39:50.935Z,91.70
2019-03-23T02:42:17.242Z,91.61
2019-03-23T02:44:43.541Z,91.59
2019-03-23T02:47:09.865Z,91.53
2019-03-23T02:49:36.179Z,91.57
2019-03-23T02:52:02.481Z,91.65
2019-03-23T02:54:28.801Z,91.62
2019-03-23T02:56:55.103Z,91.55
2019-03-23T02:59:21.411Z,91.60
2019-03-23T03:01:47.714Z,91.57
2019-03-23T03:04:14.057Z,91.61
2019-03-23T03:06:40.357Z,91.53
2019-03-23T03:09:06.660Z,91.49
2019-03-23T03:11:32.977Z,91.48
2019-03-23T03:13:59.283Z,91.58
2019-03-23T03:16:25.591Z,91.48
2019-03-23T03:18:51.897Z,91.48
2019-03-23T03:21:18.213Z,91.49
2019-03-23T03:23:44.526Z,91.51
2019-03-23T03:26:10.863Z,91.49
2019-03-23T03:28:37.165Z,91.44
2019-03-23T03:31:03.494Z,91.54
2019-03-23T03:33:29.777Z,91.41
2019-03-23T03:35:56.083Z,91.46
2019-03-23T03:38:22.396Z,91.39
2019-03-23T03:40:48.701Z,91.34
2019-03-23T03:43:15.012Z,91.33
2019-03-23T03:45:41.318Z,91.25
2019-03-23T03:48:07.616Z,91.12
2019-03-23T03:50:33.928Z,90.90
2019-03-23T03:53:00.235Z,90.78
2019-03-23T03:55:26.570Z,90.65
2019-03-23T03:57:52.874Z,90.65
2019-03-23T04:00:19.213Z,90.62
2019-03-23T04:02:45.513Z,90.59
2019-03-23T04:05:11.812Z,90.64
2019-03-23T04:07:38.116Z,90.64
2019-03-23T04:10:04.426Z,90.73
2019-03-23T04:12:30.732Z,90.68
2019-03-23T04:14:57.043Z,90.57
2019-03-23T04:17:23.378Z,90.61
2019-03-23T04:19:49.689Z,90.69
2019-03-23T04:22:15.981Z,90.70
2019-03-23T04:24:42.282Z,90.76
2019-03-23T04:27:08.588Z,90.86
2019-03-23T04:29:34.901Z,90.88
2019-03-23T04:32:01.201Z,90.93
2019-03-23T04:34:27.543Z,90.96
2019-03-23T04:36:53.853Z,91.03
2019-03-23T04:39:20.151Z,91.09
2019-03-23T04:41:46.464Z,91.32
2019-03-23T04:44:12.811Z,91.59
2019-03-23T04:46:39.128Z,91.98
2019-03-23T04:49:05.429Z,92.30
2019-03-23T04:51:31.738Z,92.67
2019-03-23T04:53:58.054Z,93.08
2019-03-23T04:56:24.387Z,93.62
2019-03-23T04:58:50.691Z,94.33
2019-03-23T05:01:16.994Z,95.14
2019-03-23T05:03:43.308Z,96.08
2019-03-23T05:06:09.620Z,97.08
2019-03-23T05:08:35.927Z,98.30
2019-03-23T05:11:02.247Z,99.65
2019-03-23T05:13:28.551Z,100.00
2019-03-23T05:15:54.863Z,100.00
2019-03-23T05:18:21.218Z,100.00
2019-03-23T05:20:47.528Z,100.00
2019-03-23T05:23:13.844Z,100.00
2019-03-23T05:25:40.216Z,100.00
2019-03-23T05:28:06.543Z,100.00
2019-03-23T05:30:32.849Z,100.00
2019-03-23T05:32:59.167Z,100.00
2019-03-23T05:35:25.478Z,100.00
2019-03-23T05:37:51.789Z,100.00
2019-03-23T05:40:18.102Z,100.00
2019-03-23T05:42:44.410Z,100.00
2019-03-23T05:45:10.719Z,100.00
2019-03-23T05:47:37.067Z,100.00
2019-03-23T05:50:03.429Z,100.00
2019-03-23T05:52:29.764Z,100.00
2019-03-23T05:54:56.078Z,100.00
2019-03-23T05:57:22.413Z,100.00
2019-03-23T05:59:48.732Z,100.00
2019-03-23T06:02:15.038Z,100.00
2019-03-23T06:04:41.683Z,100.00
2019-03-23T06:07:07.984Z,100.00
2019-03-23T06:09:34.315Z,100.00
2019-03-23T06:12:00.624Z,100.00
2019-03-23T06:14:26.931Z,100.00
2019-03-23T06:16:53.248Z,100.00
2019-03-23T06:19:19.562Z,100.00
2019-03-23T06:21:45.890Z,100.00
2019-03-23T06:24:12.207Z,100.00
2019-03-23T06:26:38.522Z,100.00
2019-03-23T06:29:04.843Z,100.00
2019-03-23T06:31:31.158Z,100.00
2019-03-23T06:33:57.463Z,100.00
2019-03-23T06:36:23.812Z,100.00
2019-03-23T06:38:50.123Z,100.00
2019-03-23T06:41:16.461Z,100.00
2019-03-23T06:43:42.774Z,100.00
2019-03-23T06:46:09.090Z,100.00
2019-03-23T06:48:35.400Z,86.25
2019-03-23T06:51:03.283Z,72.72
2019-03-23T06:53:28.021Z,66.22
2019-03-23T06:55:54.330Z,65.15
2019-03-23T06:58:20.659Z,61.99
2019-03-23T07:00:46.979Z,59.58
2019-03-23T07:03:13.294Z,58.04
2019-03-23T07:05:39.601Z,53.50
2019-03-23T07:08:05.906Z,53.65
2019-03-23T07:10:32.215Z,52.46
2019-03-23T07:12:58.520Z,50.73
2019-03-23T07:15:24.833Z,50.61
2019-03-23T07:17:51.139Z,48.71
2019-03-23T07:20:17.446Z,47.57
2019-03-23T07:22:43.766Z,46.21
2019-03-23T07:25:10.993Z,46.23
2019-03-23T07:27:37.513Z,46.23
2019-03-23T07:30:03.830Z,45.42
2019-03-23T07:32:30.145Z,44.85
2019-03-23T07:34:56.451Z,44.74
2019-03-23T07:37:22.771Z,44.11
2019-03-23T07:39:49.112Z,43.97
2019-03-23T07:42:15.443Z,43.82
2019-03-23T07:44:41.757Z,42.60
2019-03-23T07:47:08.062Z,42.60
2019-03-23T07:49:34.396Z,42.11
2019-03-23T07:52:00.730Z,41.80
2019-03-23T07:54:27.036Z,41.28
2019-03-23T07:56:53.354Z,41.68
2019-03-23T07:59:19.661Z,41.61
2019-03-23T08:01:45.968Z,40.96
2019-03-23T08:04:12.303Z,41.18
2019-03-23T08:06:38.613Z,40.30
2019-03-23T08:09:04.935Z,40.11
2019-03-23T08:11:31.249Z,39.40
2019-03-23T08:13:57.558Z,38.88
2019-03-23T08:16:23.880Z,38.98
2019-03-23T08:18:50.188Z,39.37
2019-03-23T08:21:16.499Z,38.75
2019-03-23T08:23:42.805Z,38.87
2019-03-23T08:26:09.124Z,38.04
2019-03-23T08:28:35.433Z,38.00
2019-03-23T08:31:01.746Z,37.29
2019-03-23T08:33:28.055Z,37.51
2019-03-23T08:35:54.363Z,37.57
2019-03-23T08:38:20.709Z,37.26
2019-03-23T08:40:47.020Z,36.64
2019-03-23T08:43:13.319Z,36.48
2019-03-23T08:45:39.648Z,36.51
2019-03-23T08:48:05.944Z,36.13
2019-03-23T08:50:32.279Z,35.64
2019-03-23T08:52:58.580Z,35.91
2019-03-23T08:55:24.893Z,35.75
2019-03-23T08:57:51.214Z,35.52
2019-03-23T09:00:17.532Z,36.90
2019-03-23T09:02:43.843Z,39.25
2019-03-23T09:05:10.153Z,43.15
2019-03-23T09:07:36.469Z,43.36
2019-03-23T09:10:02.805Z,45.36
2019-03-23T09:12:29.104Z,44.73
2019-03-23T09:14:55.582Z,41.43
2019-03-23T09:17:21.914Z,41.55
2019-03-23T09:19:48.287Z,39.33
2019-03-23T09:22:14.592Z,41.16
2019-03-23T09:24:40.999Z,41.14
2019-03-23T09:27:07.303Z,42.88
2019-03-23T09:29:33.682Z,42.65
2019-03-23T09:31:59.988Z,41.90
2019-03-23T09:34:26.342Z,43.46
2019-03-23T09:36:52.615Z,41.40
2019-03-23T09:39:18.949Z,40.96
2019-03-23T09:41:45.253Z,39.14
2019-03-23T09:44:11.647Z,39.23
2019-03-23T09:46:37.988Z,38.85
2019-03-23T09:49:04.352Z,38.43
2019-03-23T09:51:30.661Z,35.95
2019-03-23T09:53:57.060Z,34.42
2019-03-23T09:56:23.374Z,33.89
2019-03-23T09:58:49.688Z,34.77
2019-03-23T10:01:16.022Z,37.36
2019-03-23T10:03:42.965Z,37.88
2019-03-23T10:06:08.695Z,38.05
2019-03-23T10:08:35.002Z,38.88
2019-03-23T10:11:01.368Z,40.79
2019-03-23T10:13:27.811Z,41.31
2019-03-23T10:15:54.120Z,40.99
2019-03-23T10:18:20.438Z,37.90
2019-03-23T10:20:46.740Z,40.29
2019-03-23T10:23:13.043Z,40.66
2019-03-23T10:25:39.356Z,40.22
2019-03-23T10:28:05.664Z,38.06
2019-03-23T10:30:32.145Z,34.69
2019-03-23T10:32:58.451Z,33.81
2019-03-23T10:35:24.761Z,34.36
2019-03-23T10:37:51.087Z,34.18
2019-03-23T10:40:17.608Z,33.38
2019-03-23T10:42:43.833Z,35.30
2019-03-23T10:45:10.103Z,35.38
2019-03-23T10:47:36.530Z,34.76
2019-03-23T10:50:02.716Z,33.34
2019-03-23T10:52:29.025Z,32.60
2019-03-23T10:54:55.469Z,32.99
2019-03-23T10:57:21.783Z,34.38
2019-03-23T10:59:48.183Z,37.83
2019-03-23T11:02:14.523Z,37.97
2019-03-23T11:04:40.836Z,37.62
2019-03-23T11:07:07.144Z,38.12
2019-03-23T11:09:33.460Z,38.81
2019-03-23T11:11:59.791Z,39.21
2019-03-23T11:14:26.104Z,34.39
2019-03-23T11:16:52.417Z,32.38
2019-03-23T11:19:18.733Z,31.82
2019-03-23T11:21:45.040Z,31.59
2019-03-23T11:24:11.363Z,30.99
2019-03-23T11:26:37.667Z,30.38
2019-03-23T11:29:03.972Z,30.52
2019-03-23T11:31:31.092Z,33.60
2019-03-23T11:33:56.605Z,35.26
2019-03-23T11:36:22.904Z,35.54
2019-03-23T11:38:49.219Z,38.12
2019-03-23T11:41:15.528Z,38.99
2019-03-23T11:43:41.837Z,39.49
2019-03-23T11:46:08.160Z,39.50
2019-03-23T11:48:34.466Z,39.80
2019-03-23T11:51:00.787Z,38.57
2019-03-23T11:53:27.122Z,33.45
2019-03-23T11:55:53.429Z,33.37
2019-03-23T11:58:19.735Z,33.25
2019-03-23T12:00:46.043Z,33.73
2019-03-23T12:03:12.423Z,33.76
2019-03-23T12:05:38.723Z,37.61
2019-03-23T12:08:05.037Z,37.24
2019-03-23T12:10:31.345Z,39.41
2019-03-23T12:12:57.709Z,38.42
2019-03-23T12:15:24.013Z,39.72
2019-03-23T12:17:50.321Z,38.62
2019-03-23T12:20:16.635Z,35.61
2019-03-23T12:22:42.957Z,34.06
2019-03-23T12:25:09.309Z,34.23
2019-03-23T12:27:35.622Z,33.07
2019-03-23T12:30:07.030Z,36.50
2019-03-23T12:32:28.243Z,35.57
2019-03-23T12:34:54.724Z,33.27
2019-03-23T12:37:21.112Z,33.68
2019-03-23T12:39:47.386Z,33.98
2019-03-23T12:42:13.697Z,33.06
2019-03-23T12:44:40.000Z,33.38
2019-03-23T12:47:06.319Z,33.31
2019-03-23T12:49:32.621Z,34.27
2019-03-23T12:51:58.991Z,34.45
2019-03-23T12:54:25.321Z,32.56
2019-03-23T12:56:51.619Z,31.99
2019-03-23T12:59:17.932Z,31.70
2019-03-23T13:01:44.333Z,32.30
2019-03-23T13:04:10.661Z,33.07
2019-03-23T13:06:36.959Z,33.76
2019-03-23T13:09:03.272Z,33.85
2019-03-23T13:11:34.951Z,34.25
2019-03-23T13:13:55.893Z,34.47
2019-03-23T13:16:22.201Z,35.05
2019-03-23T13:18:48.514Z,34.82
2019-03-23T13:21:14.821Z,34.60
2019-03-23T13:23:41.130Z,34.13
2019-03-23T13:26:07.454Z,33.62
2019-03-23T13:28:33.753Z,35.45
2019-03-23T13:31:00.069Z,35.37
2019-03-23T13:33:26.378Z,34.89
2019-03-23T13:35:52.688Z,34.52
2019-03-23T13:38:19.006Z,34.75
2019-03-23T13:40:45.311Z,34.54
2019-03-23T13:43:11.629Z,33.48
2019-03-23T13:45:42.650Z,34.17
2019-03-23T13:48:04.249Z,33.44
2019-03-23T13:50:30.575Z,33.66
2019-03-23T13:52:56.885Z,33.09
2019-03-23T13:55:23.195Z,33.37
2019-03-23T13:57:49.510Z,33.04
2019-03-23T14:00:15.835Z,32.30
2019-03-23T14:02:42.149Z,32.36
2019-03-23T14:05:15.711Z,32.60
2019-03-23T14:07:34.797Z,32.59
2019-03-23T14:10:01.173Z,31.51
2019-03-23T14:12:27.487Z,31.81
2019-03-23T14:14:53.799Z,31.90
2019-03-23T14:17:20.105Z,32.35
2019-03-23T14:19:46.411Z,31.95
2019-03-23T14:22:12.720Z,32.38
2019-03-23T14:24:39.054Z,32.32
2019-03-23T14:27:05.360Z,33.37
2019-03-23T14:29:31.676Z,31.46
2019-03-23T14:31:57.989Z,33.59
2019-03-23T14:34:24.307Z,33.89
2019-03-23T14:36:50.655Z,32.05
2019-03-23T14:39:16.935Z,32.20
2019-03-23T14:41:43.257Z,30.68
2019-03-23T14:44:10.229Z,30.61
2019-03-23T14:46:37.072Z,30.11
2019-03-23T14:49:03.386Z,29.68
2019-03-23T14:51:29.686Z,29.43
2019-03-23T14:53:56.000Z,29.13
2019-03-23T14:56:22.311Z,29.62
2019-03-23T14:58:48.639Z,29.73
2019-03-23T15:01:14.963Z,29.67
2019-03-23T15:03:41.272Z,29.57
2019-03-23T15:06:07.584Z,29.39
2019-03-23T15:08:33.893Z,29.85
2019-03-23T15:11:00.211Z,30.28
2019-03-23T15:13:26.523Z,30.69
2019-03-23T15:15:52.829Z,30.91
2019-03-23T15:18:19.167Z,30.12
2019-03-23T15:20:45.500Z,30.37
2019-03-23T15:23:11.843Z,30.52
2019-03-23T15:25:39.534Z,29.94
2019-03-23T15:28:04.597Z,30.21
2019-03-23T15:30:30.924Z,30.02
2019-03-23T15:32:57.231Z,30.58
2019-03-23T15:35:23.541Z,31.15
2019-03-23T15:37:49.846Z,31.68
2019-03-23T15:40:16.188Z,32.61
2019-03-23T15:42:42.558Z,31.70
2019-03-23T15:45:08.863Z,30.56
2019-03-23T15:47:35.172Z,32.33
2019-03-23T15:50:01.513Z,32.69
2019-03-23T15:52:27.825Z,32.50
2019-03-23T15:54:54.143Z,30.89
2019-03-23T15:57:20.440Z,31.14
2019-03-23T15:59:46.766Z,32.53
2019-03-23T16:02:13.106Z,32.71
2019-03-23T16:04:39.415Z,33.48
2019-03-23T16:07:05.835Z,33.63
2019-03-23T16:09:32.162Z,33.67
2019-03-23T16:11:58.479Z,33.47
2019-03-23T16:14:24.797Z,32.34
2019-03-23T16:16:51.127Z,30.69
2019-03-23T16:19:17.433Z,30.51
2019-03-23T16:21:43.741Z,30.52
2019-03-23T16:24:10.075Z,30.05
2019-03-23T16:26:36.412Z,29.32
2019-03-23T16:29:02.732Z,29.25
2019-03-23T16:31:29.074Z,28.44
2019-03-23T16:33:55.381Z,28.72
2019-03-23T16:36:21.684Z,28.68
2019-03-23T16:38:48.020Z,28.98
2019-03-23T16:41:14.325Z,28.99
2019-03-23T16:43:40.662Z,29.52
2019-03-23T16:46:07.119Z,29.32
2019-03-23T16:48:33.507Z,29.10
2019-03-23T16:50:59.821Z,29.75
2019-03-23T16:53:26.132Z,29.70
2019-03-23T16:55:52.453Z,30.07
2019-03-23T16:58:18.758Z,30.04
2019-03-23T17:00:45.110Z,30.43
2019-03-23T17:03:11.420Z,29.57
2019-03-23T17:05:37.751Z,29.64
2019-03-23T17:08:04.071Z,30.13
2019-03-23T17:10:30.443Z,30.21
2019-03-23T17:12:56.754Z,29.48
2019-03-23T17:15:23.064Z,28.42
2019-03-23T17:17:49.399Z,28.53
2019-03-23T17:20:15.715Z,28.62
2019-03-23T17:22:42.041Z,29.27
2019-03-23T17:25:08.358Z,28.85
2019-03-23T17:27:34.700Z,29.40
2019-03-23T17:30:01.056Z,30.33
2019-03-23T17:32:27.371Z,31.00
2019-03-23T17:34:53.681Z,33.51
2019-03-23T17:37:19.988Z,35.36
2019-03-23T17:39:46.304Z,35.55
2019-03-23T17:42:12.645Z,36.08
2019-03-23T17:44:38.942Z,36.63
2019-03-23T17:47:05.249Z,37.22
2019-03-23T17:49:31.564Z,37.92
2019-03-23T17:51:57.895Z,38.55
2019-03-23T17:54:24.226Z,39.13
2019-03-23T17:56:50.539Z,39.81
2019-03-23T17:59:16.878Z,40.29
2019-03-23T18:01:43.193Z,40.87
2019-03-23T18:04:09.508Z,41.44
2019-03-23T18:06:35.829Z,41.91
2019-03-23T18:09:02.144Z,42.46
2019-03-23T18:11:28.450Z,42.94
2019-03-23T18:13:54.755Z,43.52
2019-03-23T18:16:21.065Z,43.91
2019-03-23T18:18:47.380Z,44.35
2019-03-23T18:21:13.717Z,44.77
2019-03-23T18:23:40.049Z,45.25
2019-03-23T18:26:06.356Z,45.68
2019-03-23T18:28:32.689Z,46.13
2019-03-23T18:30:58.992Z,46.57
2019-03-23T18:33:25.333Z,46.96
2019-03-23T18:35:51.646Z,47.33
2019-03-23T18:38:21.125Z,47.76
2019-03-23T18:40:47.437Z,48.25
2019-03-23T18:43:13.740Z,48.63
2019-03-23T18:45:40.057Z,49.03
2019-03-23T18:48:06.396Z,49.46
2019-03-23T18:50:32.707Z,49.96
2019-03-23T18:52:59.019Z,50.34
2019-03-23T18:55:25.352Z,50.82
2019-03-23T18:57:51.664Z,51.25
2019-03-23T19:00:17.971Z,51.62
2019-03-23T19:02:44.284Z,52.06
2019-03-23T19:05:10.592Z,52.56
2019-03-23T19:07:36.911Z,52.92
2019-03-23T19:10:03.225Z,53.32
2019-03-23T19:12:29.534Z,53.77
2019-03-23T19:14:55.843Z,54.21
2019-03-23T19:17:22.183Z,54.60
2019-03-23T19:19:48.657Z,55.10
2019-03-23T19:22:14.804Z,55.56
2019-03-23T19:24:41.122Z,55.90
2019-03-23T19:27:07.433Z,56.33
2019-03-23T19:29:33.757Z,56.73
2019-03-23T19:32:01.882Z,57.17
2019-03-23T19:34:26.467Z,57.57
2019-03-23T19:36:52.787Z,58.12
2019-03-23T19:39:19.096Z,58.50
2019-03-23T19:41:45.401Z,58.99
2019-03-23T19:44:11.714Z,59.48
2019-03-23T19:46:38.022Z,59.79
2019-03-23T19:49:04.325Z,60.24
2019-03-23T19:51:30.662Z,60.67
2019-03-23T19:53:56.975Z,60.97
2019-03-23T19:56:23.284Z,61.43
2019-03-23T19:58:49.591Z,61.75
2019-03-23T20:01:15.902Z,62.14
2019-03-23T20:03:42.214Z,62.50
2019-03-23T20:06:08.526Z,62.92
2019-03-23T20:08:34.970Z,63.25
2019-03-23T20:11:01.280Z,63.61
2019-03-23T20:13:27.594Z,63.89
2019-03-23T20:15:53.905Z,64.26
2019-03-23T20:18:20.247Z,64.61
2019-03-23T20:20:46.521Z,65.03
2019-03-23T20:23:12.832Z,65.39
2019-03-23T20:25:39.913Z,65.76
2019-03-23T20:28:05.468Z,66.33
2019-03-23T20:30:31.813Z,66.70
2019-03-23T20:32:58.395Z,67.02
2019-03-23T20:35:24.720Z,67.37
2019-03-23T20:37:51.028Z,67.58
2019-03-23T20:40:17.331Z,67.96
2019-03-23T20:42:43.937Z,68.24
2019-03-23T20:45:09.958Z,68.60
2019-03-23T20:47:36.261Z,68.88
2019-03-23T20:50:02.568Z,69.27
2019-03-23T20:52:28.876Z,69.42
2019-03-23T20:54:55.185Z,69.76
2019-03-23T20:57:24.063Z,70.14
2019-03-23T20:59:47.958Z,70.52
2019-03-23T21:02:14.270Z,70.91
2019-03-23T21:04:40.586Z,71.15
2019-03-23T21:07:06.894Z,71.48
2019-03-23T21:09:33.229Z,71.82
2019-03-23T21:11:59.536Z,68.35
2019-03-23T21:14:25.835Z,66.07
2019-03-23T21:16:52.151Z,65.40
2019-03-23T21:19:18.461Z,65.60
2019-03-23T21:21:44.772Z,65.50
2019-03-23T21:24:11.096Z,65.84
2019-03-23T21:26:37.429Z,66.52
2019-03-23T21:29:03.797Z,67.16
2019-03-23T21:31:30.125Z,67.73
2019-03-23T21:33:56.439Z,68.45
2019-03-23T21:36:22.796Z,69.07
2019-03-23T21:38:49.065Z,69.64
2019-03-23T21:41:15.374Z,70.39
2019-03-23T21:43:41.680Z,70.82
2019-03-23T21:46:07.986Z,71.50
2019-03-23T21:48:34.327Z,71.13
2019-03-23T21:51:00.626Z,71.33
2019-03-23T21:53:26.935Z,71.81
2019-03-23T21:55:53.247Z,72.39
2019-03-23T21:58:19.557Z,73.05
2019-03-23T22:00:45.875Z,73.83
2019-03-23T22:03:12.175Z,74.43
2019-03-23T22:05:38.553Z,75.18
2019-03-23T22:08:04.834Z,75.73
2019-03-23T22:10:31.142Z,76.39
2019-03-23T22:12:57.551Z,76.81
2019-03-23T22:15:23.886Z,76.96
2019-03-23T22:17:50.219Z,77.51
2019-03-23T22:20:16.518Z,77.80
2019-03-23T22:22:42.822Z,78.13
2019-03-23T22:25:09.129Z,78.22
2019-03-23T22:27:35.467Z,78.58
2019-03-23T22:30:01.859Z,78.91
2019-03-23T22:32:28.209Z,78.95
2019-03-23T22:34:54.509Z,79.04
2019-03-23T22:37:20.864Z,79.40
2019-03-23T22:39:47.128Z,79.15
2019-03-23T22:42:13.465Z,79.19
2019-03-23T22:44:39.775Z,79.36
2019-03-23T22:47:06.087Z,79.86
2019-03-23T22:49:32.415Z,79.69
2019-03-23T22:51:58.734Z,79.47
2019-03-23T22:54:25.055Z,79.55
2019-03-23T22:56:51.366Z,79.57
2019-03-23T22:59:17.760Z,79.43
2019-03-23T23:01:44.030Z,79.60
2019-03-23T23:04:10.342Z,79.50
2019-03-23T23:06:36.644Z,79.69
2019-03-23T23:09:02.949Z,79.62
2019-03-23T23:11:29.254Z,79.82
2019-03-23T23:13:55.563Z,79.86
2019-03-23T23:16:21.864Z,80.16
2019-03-23T23:18:48.186Z,80.51
2019-03-23T23:21:14.528Z,80.56
2019-03-23T23:23:40.804Z,80.70
2019-03-23T23:26:07.106Z,80.77
2019-03-23T23:28:33.417Z,81.01
2019-03-23T23:30:59.731Z,81.12
2019-03-23T23:33:26.107Z,81.29
2019-03-23T23:35:52.484Z,81.44
2019-03-23T23:38:18.796Z,81.73
2019-03-23T23:40:45.102Z,81.80
2019-03-23T23:43:11.435Z,81.91
2019-03-23T23:45:37.742Z,82.19
2019-03-23T23:48:04.051Z,82.17
2019-03-23T23:50:30.363Z,82.27
2019-03-23T23:52:56.679Z,82.38
2019-03-23T23:55:23.004Z,82.40
2019-03-23T23:57:49.307Z,82.88
